Portada
METAR-TAF:

METAR-TAF

Aeropuertos :

Yamena, Chad

Aeropuerto Internacional de Yamena

latitud: 12-08N, longitud: 015-02E, altitud: 295 m

Observación

El informe se hizo hace 26 minutos, a las 18:00 UTC
Viento calma
Temperatura 32°C
Humedad 52%
Presión 1009 hPa
Visibilidad: 8000 m

METAR: FTTJ 221800Z 00000KT 8000 NSC 32/21 Q1009 NOSIG

Hora: 19:26 (18:26 UTC)

Pronóstico

El informe se hizo hace 1 hora y 26 minutos, a las 17:00 UTC
Pronóstico válido del 22 a las 18 UTC al 23 a las 24 UTC
Viento 3 kt con dirección variable
Visibilidad 10 km o más
sin nubes por debajo de 1500 m y sin presencia de cumulonimbus.
Evolucionando progresivamente
del 23 a las 08 UTC al 23 a las 10 UTC
Viento 10 kt del oeste-suroeste
Probabilidad 30% :
Temporalmente
del 23 a las 15 UTC al 23 a las 22 UTC
tormenta

TAF: FTTJ 221700Z 2218/2324 VRB03KT CAVOK BECMG 2308/2310 24010KT PROB30 TEMPO 2315/2322 TS

Observaciones y pronósticos meteorológicos de más de 4000 aeropuertos (mensajes METAR y TAF).

Los puntos amarillos y rojos representan las estaciones disponibles.

Ponga el ratón en el punto deseado para ver el nombre de la estación.

Haga clic para ver las observaciones y los pronósticos meteorológicos.

Para cambiar el mapa : haga clic en los botones verdes con una cruz de color negro para hacer un zoom, en el botón verde con un guión para alejar o en las flechas verdes para mapas adyacentes.


METAR-TAF: